sensor_id;sensor_type;location;lat;lon;timestamp;P1;durP1;ratioP1;P2;durP2;ratioP2
22634;SDS011;11484;50.858;4.384;2022-09-13T00:00:08;5.45;;;3.03;;
22634;SDS011;11484;50.858;4.384;2022-09-13T00:02:34;3.55;;;2.42;;
22634;SDS011;11484;50.858;4.384;2022-09-13T00:04:59;5.53;;;2.78;;
22634;SDS011;11484;50.858;4.384;2022-09-13T00:07:25;5.38;;;2.70;;
22634;SDS011;11484;50.858;4.384;2022-09-13T00:09:51;3.90;;;2.25;;
22634;SDS011;11484;50.858;4.384;2022-09-13T00:12:16;3.88;;;2.80;;
22634;SDS011;11484;50.858;4.384;2022-09-13T00:14:42;5.57;;;2.60;;
22634;SDS011;11484;50.858;4.384;2022-09-13T00:17:08;4.25;;;2.70;;
22634;SDS011;11484;50.858;4.384;2022-09-13T00:19:33;4.00;;;2.60;;
22634;SDS011;11484;50.858;4.384;2022-09-13T00:21:59;3.55;;;2.50;;
22634;SDS011;11484;50.858;4.384;2022-09-13T00:24:25;4.45;;;2.50;;
22634;SDS011;11484;50.858;4.384;2022-09-13T00:26:50;5.03;;;2.22;;
22634;SDS011;11484;50.858;4.384;2022-09-13T00:29:16;3.60;;;2.10;;
22634;SDS011;11484;50.858;4.384;2022-09-13T00:31:42;3.33;;;2.40;;
22634;SDS011;11484;50.858;4.384;2022-09-13T00:34:07;3.55;;;2.35;;
22634;SDS011;11484;50.858;4.384;2022-09-13T00:36:33;5.10;;;2.53;;
22634;SDS011;11484;50.858;4.384;2022-09-13T00:38:59;3.85;;;2.28;;
22634;SDS011;11484;50.858;4.384;2022-09-13T00:41:25;5.28;;;3.05;;
22634;SDS011;11484;50.858;4.384;2022-09-13T00:43:52;4.00;;;2.90;;
22634;SDS011;11484;50.858;4.384;2022-09-13T00:46:20;3.50;;;2.50;;
22634;SDS011;11484;50.858;4.384;2022-09-13T00:49:16;3.85;;;2.08;;
22634;SDS011;11484;50.858;4.384;2022-09-13T00:51:41;3.85;;;2.10;;
22634;SDS011;11484;50.858;4.384;2022-09-13T00:54:12;3.97;;;2.15;;
22634;SDS011;11484;50.858;4.384;2022-09-13T00:56:42;3.60;;;2.08;;
22634;SDS011;11484;50.858;4.384;2022-09-13T00:59:14;3.53;;;1.95;;
22634;SDS011;11484;50.858;4.384;2022-09-13T01:01:48;4.80;;;2.15;;
22634;SDS011;11484;50.858;4.384;2022-09-13T01:04:18;4.03;;;2.03;;
22634;SDS011;11484;50.858;4.384;2022-09-13T01:06:46;2.47;;;1.60;;
22634;SDS011;11484;50.858;4.384;2022-09-13T01:09:15;3.30;;;1.80;;
22634;SDS011;11484;50.858;4.384;2022-09-13T01:11:47;2.00;;;1.48;;
22634;SDS011;11484;50.858;4.384;2022-09-13T01:14:19;2.00;;;1.48;;
22634;SDS011;11484;50.858;4.384;2022-09-13T01:16:48;3.03;;;1.50;;
22634;SDS011;11484;50.858;4.384;2022-09-13T01:19:14;2.45;;;1.38;;
22634;SDS011;11484;50.858;4.384;2022-09-13T01:24:21;2.63;;;1.55;;
22634;SDS011;11484;50.858;4.384;2022-09-13T01:27:10;3.70;;;1.52;;
22634;SDS011;11484;50.858;4.384;2022-09-13T01:29:55;3.63;;;1.42;;
22634;SDS011;11484;50.858;4.384;2022-09-13T01:35:06;3.83;;;1.83;;
22634;SDS011;11484;50.858;4.384;2022-09-13T01:45:55;3.22;;;1.60;;
22634;SDS011;11484;50.858;4.384;2022-09-13T01:57:09;4.03;;;1.88;;
22634;SDS011;11484;50.858;4.384;2022-09-13T02:00:14;3.97;;;1.67;;
22634;SDS011;11484;50.858;4.384;2022-09-13T02:02:36;3.97;;;1.70;;
22634;SDS011;11484;50.858;4.384;2022-09-13T02:05:11;2.60;;;1.88;;
22634;SDS011;11484;50.858;4.384;2022-09-13T02:08:13;2.40;;;1.45;;
22634;SDS011;11484;50.858;4.384;2022-09-13T02:10:49;2.40;;;1.55;;
22634;SDS011;11484;50.858;4.384;2022-09-13T02:13:24;2.70;;;1.48;;
22634;SDS011;11484;50.858;4.384;2022-09-13T02:15:57;2.13;;;1.50;;
22634;SDS011;11484;50.858;4.384;2022-09-13T02:18:32;2.28;;;1.65;;
22634;SDS011;11484;50.858;4.384;2022-09-13T02:21:03;3.20;;;1.80;;
22634;SDS011;11484;50.858;4.384;2022-09-13T02:23:36;2.63;;;1.63;;
22634;SDS011;11484;50.858;4.384;2022-09-13T02:26:06;3.47;;;2.55;;
22634;SDS011;11484;50.858;4.384;2022-09-13T02:28:35;3.92;;;2.40;;
22634;SDS011;11484;50.858;4.384;2022-09-13T02:31:06;3.25;;;2.70;;
22634;SDS011;11484;50.858;4.384;2022-09-13T02:33:41;3.17;;;2.20;;
22634;SDS011;11484;50.858;4.384;2022-09-13T02:36:31;3.20;;;1.95;;
22634;SDS011;11484;50.858;4.384;2022-09-13T02:39:03;3.60;;;1.80;;
22634;SDS011;11484;50.858;4.384;2022-09-13T02:41:42;2.80;;;1.95;;
22634;SDS011;11484;50.858;4.384;2022-09-13T02:44:50;4.30;;;2.00;;
22634;SDS011;11484;50.858;4.384;2022-09-13T02:57:59;7.25;;;2.78;;
22634;SDS011;11484;50.858;4.384;2022-09-13T03:00:31;6.65;;;2.58;;
22634;SDS011;11484;50.858;4.384;2022-09-13T03:02:57;3.15;;;2.00;;
22634;SDS011;11484;50.858;4.384;2022-09-13T03:05:26;3.55;;;2.20;;
22634;SDS011;11484;50.858;4.384;2022-09-13T03:07:52;6.15;;;2.35;;
22634;SDS011;11484;50.858;4.384;2022-09-13T03:10:18;3.80;;;1.92;;
22634;SDS011;11484;50.858;4.384;2022-09-13T03:21:25;4.40;;;2.30;;
22634;SDS011;11484;50.858;4.384;2022-09-13T03:23:56;5.05;;;2.47;;
22634;SDS011;11484;50.858;4.384;2022-09-13T03:32:04;3.42;;;2.03;;
22634;SDS011;11484;50.858;4.384;2022-09-13T03:34:41;3.65;;;2.03;;
22634;SDS011;11484;50.858;4.384;2022-09-13T03:38:01;10.57;;;3.13;;
22634;SDS011;11484;50.858;4.384;2022-09-13T03:40:13;4.90;;;2.05;;
22634;SDS011;11484;50.858;4.384;2022-09-13T03:42:50;4.20;;;2.30;;
22634;SDS011;11484;50.858;4.384;2022-09-13T03:45:27;4.82;;;2.50;;
22634;SDS011;11484;50.858;4.384;2022-09-13T03:47:57;5.40;;;2.40;;
22634;SDS011;11484;50.858;4.384;2022-09-13T03:50:24;4.13;;;2.50;;
22634;SDS011;11484;50.858;4.384;2022-09-13T03:52:55;3.95;;;2.30;;
22634;SDS011;11484;50.858;4.384;2022-09-13T03:55:30;6.25;;;2.17;;
22634;SDS011;11484;50.858;4.384;2022-09-13T03:57:58;3.50;;;2.00;;
22634;SDS011;11484;50.858;4.384;2022-09-13T04:00:23;2.78;;;2.00;;
22634;SDS011;11484;50.858;4.384;2022-09-13T04:02:49;5.45;;;2.25;;
22634;SDS011;11484;50.858;4.384;2022-09-13T04:05:15;4.15;;;2.33;;
22634;SDS011;11484;50.858;4.384;2022-09-13T04:07:40;3.28;;;2.50;;
22634;SDS011;11484;50.858;4.384;2022-09-13T04:10:06;4.50;;;2.20;;
22634;SDS011;11484;50.858;4.384;2022-09-13T04:12:33;4.95;;;2.75;;
22634;SDS011;11484;50.858;4.384;2022-09-13T04:14:59;6.18;;;2.30;;
22634;SDS011;11484;50.858;4.384;2022-09-13T04:17:25;7.50;;;2.72;;
22634;SDS011;11484;50.858;4.384;2022-09-13T04:19:51;4.30;;;2.58;;
22634;SDS011;11484;50.858;4.384;2022-09-13T04:22:17;3.15;;;1.92;;
22634;SDS011;11484;50.858;4.384;2022-09-13T04:24:44;3.95;;;2.17;;
22634;SDS011;11484;50.858;4.384;2022-09-13T04:27:10;3.72;;;2.30;;
22634;SDS011;11484;50.858;4.384;2022-09-13T04:29:36;5.38;;;2.30;;
22634;SDS011;11484;50.858;4.384;2022-09-13T04:32:02;3.58;;;2.17;;
22634;SDS011;11484;50.858;4.384;2022-09-13T04:34:28;4.85;;;2.70;;
22634;SDS011;11484;50.858;4.384;2022-09-13T04:36:53;4.05;;;3.00;;
22634;SDS011;11484;50.858;4.384;2022-09-13T04:39:20;6.13;;;2.70;;
22634;SDS011;11484;50.858;4.384;2022-09-13T04:41:47;6.03;;;2.55;;
22634;SDS011;11484;50.858;4.384;2022-09-13T04:44:14;13.82;;;3.00;;
22634;SDS011;11484;50.858;4.384;2022-09-13T04:46:41;19.63;;;4.00;;
22634;SDS011;11484;50.858;4.384;2022-09-13T04:49:08;22.33;;;4.95;;
22634;SDS011;11484;50.858;4.384;2022-09-13T04:51:34;17.88;;;4.97;;
22634;SDS011;11484;50.858;4.384;2022-09-13T04:54:00;16.85;;;3.88;;
22634;SDS011;11484;50.858;4.384;2022-09-13T04:56:25;12.13;;;5.78;;
22634;SDS011;11484;50.858;4.384;2022-09-13T04:58:52;17.75;;;4.72;;
22634;SDS011;11484;50.858;4.384;2022-09-13T05:01:19;14.07;;;3.90;;
22634;SDS011;11484;50.858;4.384;2022-09-13T05:03:46;17.30;;;4.38;;
22634;SDS011;11484;50.858;4.384;2022-09-13T05:06:12;10.45;;;3.20;;
22634;SDS011;11484;50.858;4.384;2022-09-13T05:08:42;8.70;;;3.28;;
22634;SDS011;11484;50.858;4.384;2022-09-13T05:11:08;10.77;;;3.53;;
22634;SDS011;11484;50.858;4.384;2022-09-13T05:13:34;6.53;;;2.80;;
22634;SDS011;11484;50.858;4.384;2022-09-13T05:16:01;8.40;;;3.58;;
22634;SDS011;11484;50.858;4.384;2022-09-13T05:18:29;10.60;;;3.78;;
22634;SDS011;11484;50.858;4.384;2022-09-13T05:20:57;6.47;;;3.28;;
22634;SDS011;11484;50.858;4.384;2022-09-13T05:23:24;9.43;;;3.60;;
22634;SDS011;11484;50.858;4.384;2022-09-13T05:25:52;5.78;;;3.08;;
22634;SDS011;11484;50.858;4.384;2022-09-13T05:28:22;8.98;;;3.42;;
22634;SDS011;11484;50.858;4.384;2022-09-13T05:30:58;14.15;;;3.63;;
22634;SDS011;11484;50.858;4.384;2022-09-13T05:33:26;9.45;;;3.60;;
22634;SDS011;11484;50.858;4.384;2022-09-13T05:35:53;7.93;;;3.08;;
22634;SDS011;11484;50.858;4.384;2022-09-13T05:38:19;9.30;;;3.95;;
22634;SDS011;11484;50.858;4.384;2022-09-13T05:40:46;10.18;;;3.03;;
22634;SDS011;11484;50.858;4.384;2022-09-13T05:43:12;6.13;;;3.10;;
22634;SDS011;11484;50.858;4.384;2022-09-13T05:45:38;7.47;;;3.50;;
22634;SDS011;11484;50.858;4.384;2022-09-13T05:48:04;9.00;;;3.38;;
22634;SDS011;11484;50.858;4.384;2022-09-13T05:50:30;7.18;;;2.90;;
22634;SDS011;11484;50.858;4.384;2022-09-13T05:52:56;8.93;;;4.15;;
22634;SDS011;11484;50.858;4.384;2022-09-13T05:55:21;11.23;;;3.75;;
22634;SDS011;11484;50.858;4.384;2022-09-13T05:57:48;9.43;;;3.60;;
22634;SDS011;11484;50.858;4.384;2022-09-13T06:00:14;7.47;;;3.50;;
22634;SDS011;11484;50.858;4.384;2022-09-13T06:02:40;10.57;;;3.95;;
22634;SDS011;11484;50.858;4.384;2022-09-13T06:05:09;11.25;;;3.63;;
22634;SDS011;11484;50.858;4.384;2022-09-13T06:07:38;9.48;;;4.03;;
22634;SDS011;11484;50.858;4.384;2022-09-13T06:10:05;9.07;;;4.03;;
22634;SDS011;11484;50.858;4.384;2022-09-13T06:12:32;21.35;;;4.95;;
22634;SDS011;11484;50.858;4.384;2022-09-13T06:14:58;10.50;;;3.50;;
22634;SDS011;11484;50.858;4.384;2022-09-13T06:17:24;11.38;;;3.60;;
22634;SDS011;11484;50.858;4.384;2022-09-13T06:19:50;8.02;;;3.08;;
22634;SDS011;11484;50.858;4.384;2022-09-13T06:22:17;13.15;;;3.85;;
22634;SDS011;11484;50.858;4.384;2022-09-13T06:24:43;11.48;;;4.80;;
22634;SDS011;11484;50.858;4.384;2022-09-13T06:27:09;17.33;;;13.40;;
22634;SDS011;11484;50.858;4.384;2022-09-13T06:29:35;10.07;;;5.35;;
22634;SDS011;11484;50.858;4.384;2022-09-13T06:32:01;12.68;;;4.80;;
22634;SDS011;11484;50.858;4.384;2022-09-13T06:34:28;7.70;;;4.00;;
22634;SDS011;11484;50.858;4.384;2022-09-13T06:36:53;13.15;;;5.18;;
22634;SDS011;11484;50.858;4.384;2022-09-13T06:39:19;15.38;;;5.07;;
22634;SDS011;11484;50.858;4.384;2022-09-13T06:41:45;12.45;;;4.65;;
22634;SDS011;11484;50.858;4.384;2022-09-13T06:44:11;16.48;;;5.30;;
22634;SDS011;11484;50.858;4.384;2022-09-13T06:46:36;14.75;;;5.25;;
22634;SDS011;11484;50.858;4.384;2022-09-13T06:49:03;15.65;;;4.93;;
22634;SDS011;11484;50.858;4.384;2022-09-13T06:51:30;16.38;;;5.35;;
22634;SDS011;11484;50.858;4.384;2022-09-13T06:53:57;21.20;;;12.30;;
22634;SDS011;11484;50.858;4.384;2022-09-13T07:01:31;13.65;;;5.30;;
22634;SDS011;11484;50.858;4.384;2022-09-13T07:03:59;16.25;;;5.00;;
22634;SDS011;11484;50.858;4.384;2022-09-13T07:06:27;11.05;;;4.47;;
22634;SDS011;11484;50.858;4.384;2022-09-13T07:08:56;13.32;;;4.50;;
22634;SDS011;11484;50.858;4.384;2022-09-13T07:11:24;12.38;;;4.22;;
22634;SDS011;11484;50.858;4.384;2022-09-13T07:13:53;12.30;;;4.83;;
22634;SDS011;11484;50.858;4.384;2022-09-13T07:16:21;12.63;;;4.82;;
22634;SDS011;11484;50.858;4.384;2022-09-13T07:18:58;11.32;;;5.20;;
22634;SDS011;11484;50.858;4.384;2022-09-13T07:21:25;12.88;;;4.65;;
22634;SDS011;11484;50.858;4.384;2022-09-13T07:23:52;9.45;;;4.75;;
22634;SDS011;11484;50.858;4.384;2022-09-13T07:26:19;9.18;;;4.20;;
22634;SDS011;11484;50.858;4.384;2022-09-13T07:28:46;10.82;;;5.40;;
22634;SDS011;11484;50.858;4.384;2022-09-13T07:31:16;15.57;;;5.70;;
22634;SDS011;11484;50.858;4.384;2022-09-13T07:33:44;10.25;;;4.93;;
22634;SDS011;11484;50.858;4.384;2022-09-13T07:36:11;18.40;;;5.03;;
22634;SDS011;11484;50.858;4.384;2022-09-13T07:38:39;17.88;;;6.10;;
22634;SDS011;11484;50.858;4.384;2022-09-13T07:41:06;19.73;;;5.80;;
22634;SDS011;11484;50.858;4.384;2022-09-13T07:43:36;13.35;;;5.32;;
22634;SDS011;11484;50.858;4.384;2022-09-13T07:46:03;18.20;;;4.47;;
22634;SDS011;11484;50.858;4.384;2022-09-13T07:48:31;21.92;;;4.80;;
22634;SDS011;11484;50.858;4.384;2022-09-13T07:51:12;15.98;;;5.30;;
22634;SDS011;11484;50.858;4.384;2022-09-13T07:53:39;14.63;;;5.28;;
22634;SDS011;11484;50.858;4.384;2022-09-13T07:56:16;15.38;;;5.68;;
22634;SDS011;11484;50.858;4.384;2022-09-13T07:58:44;13.18;;;5.68;;
22634;SDS011;11484;50.858;4.384;2022-09-13T08:01:21;16.80;;;4.55;;
22634;SDS011;11484;50.858;4.384;2022-09-13T08:03:52;13.77;;;5.85;;
22634;SDS011;11484;50.858;4.384;2022-09-13T08:06:18;12.30;;;4.78;;
22634;SDS011;11484;50.858;4.384;2022-09-13T08:08:44;13.43;;;5.40;;
22634;SDS011;11484;50.858;4.384;2022-09-13T08:11:13;12.43;;;5.90;;
22634;SDS011;11484;50.858;4.384;2022-09-13T08:13:43;9.10;;;5.13;;
22634;SDS011;11484;50.858;4.384;2022-09-13T08:16:09;9.40;;;5.10;;
22634;SDS011;11484;50.858;4.384;2022-09-13T08:18:35;9.60;;;5.30;;
22634;SDS011;11484;50.858;4.384;2022-09-13T08:21:01;9.18;;;4.63;;
22634;SDS011;11484;50.858;4.384;2022-09-13T08:23:27;11.38;;;5.55;;
22634;SDS011;11484;50.858;4.384;2022-09-13T08:25:53;16.90;;;5.43;;
22634;SDS011;11484;50.858;4.384;2022-09-13T08:28:24;11.18;;;5.13;;
22634;SDS011;11484;50.858;4.384;2022-09-13T08:30:49;14.85;;;5.47;;
22634;SDS011;11484;50.858;4.384;2022-09-13T08:33:15;14.40;;;5.03;;
22634;SDS011;11484;50.858;4.384;2022-09-13T08:35:48;11.38;;;4.75;;
22634;SDS011;11484;50.858;4.384;2022-09-13T08:38:15;14.65;;;5.47;;
22634;SDS011;11484;50.858;4.384;2022-09-13T08:40:42;11.23;;;5.05;;
22634;SDS011;11484;50.858;4.384;2022-09-13T08:48:39;7.75;;;5.40;;
22634;SDS011;11484;50.858;4.384;2022-09-13T08:51:11;9.40;;;4.88;;
22634;SDS011;11484;50.858;4.384;2022-09-13T08:54:04;11.25;;;5.63;;
22634;SDS011;11484;50.858;4.384;2022-09-13T09:02:55;11.27;;;5.53;;
22634;SDS011;11484;50.858;4.384;2022-09-13T09:05:51;9.82;;;5.10;;
22634;SDS011;11484;50.858;4.384;2022-09-13T09:08:26;7.45;;;4.95;;
22634;SDS011;11484;50.858;4.384;2022-09-13T09:11:03;10.98;;;5.18;;
22634;SDS011;11484;50.858;4.384;2022-09-13T09:16:31;7.95;;;5.13;;
22634;SDS011;11484;50.858;4.384;2022-09-13T09:19:11;10.18;;;4.80;;
22634;SDS011;11484;50.858;4.384;2022-09-13T09:21:43;9.13;;;4.90;;
22634;SDS011;11484;50.858;4.384;2022-09-13T09:24:14;8.88;;;4.80;;
22634;SDS011;11484;50.858;4.384;2022-09-13T09:26:43;13.10;;;5.28;;
22634;SDS011;11484;50.858;4.384;2022-09-13T09:34:41;11.52;;;4.90;;
22634;SDS011;11484;50.858;4.384;2022-09-13T09:37:30;11.35;;;4.70;;
22634;SDS011;11484;50.858;4.384;2022-09-13T09:39:59;7.60;;;3.78;;
22634;SDS011;11484;50.858;4.384;2022-09-13T09:42:31;10.63;;;4.20;;
22634;SDS011;11484;50.858;4.384;2022-09-13T09:45:04;7.90;;;4.03;;
22634;SDS011;11484;50.858;4.384;2022-09-13T09:47:46;7.53;;;3.95;;
22634;SDS011;11484;50.858;4.384;2022-09-13T09:50:21;14.68;;;5.90;;
22634;SDS011;11484;50.858;4.384;2022-09-13T09:53:11;11.52;;;5.78;;
22634;SDS011;11484;50.858;4.384;2022-09-13T09:55:41;7.38;;;4.38;;
22634;SDS011;11484;50.858;4.384;2022-09-13T09:58:17;8.43;;;4.15;;
22634;SDS011;11484;50.858;4.384;2022-09-13T10:01:18;7.27;;;4.20;;
22634;SDS011;11484;50.858;4.384;2022-09-13T10:03:49;8.82;;;3.63;;
22634;SDS011;11484;50.858;4.384;2022-09-13T10:06:19;10.75;;;4.60;;
22634;SDS011;11484;50.858;4.384;2022-09-13T10:08:52;10.60;;;3.85;;
22634;SDS011;11484;50.858;4.384;2022-09-13T10:14:08;8.38;;;3.92;;
22634;SDS011;11484;50.858;4.384;2022-09-13T10:19:51;6.70;;;3.40;;
22634;SDS011;11484;50.858;4.384;2022-09-13T10:22:21;12.52;;;3.95;;
22634;SDS011;11484;50.858;4.384;2022-09-13T10:24:47;11.15;;;4.40;;
22634;SDS011;11484;50.858;4.384;2022-09-13T10:27:57;13.32;;;4.47;;
22634;SDS011;11484;50.858;4.384;2022-09-13T10:30:07;7.68;;;3.67;;
22634;SDS011;11484;50.858;4.384;2022-09-13T10:33:02;7.03;;;3.35;;
22634;SDS011;11484;50.858;4.384;2022-09-13T10:35:29;10.20;;;4.05;;
22634;SDS011;11484;50.858;4.384;2022-09-13T10:37:56;6.72;;;3.42;;
22634;SDS011;11484;50.858;4.384;2022-09-13T10:40:26;9.18;;;4.53;;
22634;SDS011;11484;50.858;4.384;2022-09-13T10:42:58;10.05;;;4.22;;
22634;SDS011;11484;50.858;4.384;2022-09-13T10:45:27;10.02;;;4.10;;
22634;SDS011;11484;50.858;4.384;2022-09-13T10:48:08;7.95;;;4.35;;
22634;SDS011;11484;50.858;4.384;2022-09-13T10:50:37;8.80;;;3.90;;
22634;SDS011;11484;50.858;4.384;2022-09-13T10:53:03;11.85;;;4.80;;
22634;SDS011;11484;50.858;4.384;2022-09-13T10:55:53;9.95;;;3.80;;
22634;SDS011;11484;50.858;4.384;2022-09-13T10:58:19;9.30;;;3.90;;
22634;SDS011;11484;50.858;4.384;2022-09-13T11:06:24;8.57;;;3.88;;
22634;SDS011;11484;50.858;4.384;2022-09-13T11:09:12;8.27;;;3.42;;
22634;SDS011;11484;50.858;4.384;2022-09-13T11:18:44;8.48;;;4.35;;
22634;SDS011;11484;50.858;4.384;2022-09-13T11:31:32;11.75;;;4.40;;
22634;SDS011;11484;50.858;4.384;2022-09-13T11:52:50;7.47;;;3.63;;
22634;SDS011;11484;50.858;4.384;2022-09-13T11:55:36;8.23;;;4.45;;
22634;SDS011;11484;50.858;4.384;2022-09-13T12:01:10;5.47;;;3.25;;
22634;SDS011;11484;50.858;4.384;2022-09-13T12:06:10;5.95;;;3.85;;
22634;SDS011;11484;50.858;4.384;2022-09-13T12:08:44;6.75;;;3.22;;
22634;SDS011;11484;50.858;4.384;2022-09-13T12:13:46;6.28;;;4.00;;
22634;SDS011;11484;50.858;4.384;2022-09-13T12:16:22;4.63;;;3.08;;
22634;SDS011;11484;50.858;4.384;2022-09-13T12:19:16;7.28;;;3.80;;
22634;SDS011;11484;50.858;4.384;2022-09-13T12:29:50;7.60;;;4.03;;
22634;SDS011;11484;50.858;4.384;2022-09-13T12:32:18;6.50;;;3.38;;
22634;SDS011;11484;50.858;4.384;2022-09-13T12:34:56;6.60;;;3.70;;
22634;SDS011;11484;50.858;4.384;2022-09-13T12:43:44;6.75;;;3.55;;
22634;SDS011;11484;50.858;4.384;2022-09-13T12:54:52;5.43;;;3.38;;
22634;SDS011;11484;50.858;4.384;2022-09-13T13:02:37;7.25;;;3.50;;
22634;SDS011;11484;50.858;4.384;2022-09-13T13:08:16;6.20;;;4.30;;
22634;SDS011;11484;50.858;4.384;2022-09-13T13:10:43;5.95;;;3.42;;
22634;SDS011;11484;50.858;4.384;2022-09-13T13:13:19;10.07;;;3.80;;
22634;SDS011;11484;50.858;4.384;2022-09-13T13:15:53;8.60;;;3.42;;
22634;SDS011;11484;50.858;4.384;2022-09-13T13:18:23;6.47;;;3.53;;
22634;SDS011;11484;50.858;4.384;2022-09-13T13:26:11;9.02;;;3.45;;
22634;SDS011;11484;50.858;4.384;2022-09-13T13:36:49;8.68;;;4.40;;
22634;SDS011;11484;50.858;4.384;2022-09-13T13:41:50;8.13;;;4.45;;
22634;SDS011;11484;50.858;4.384;2022-09-13T14:00:24;11.35;;;5.47;;
22634;SDS011;11484;50.858;4.384;2022-09-13T14:19:49;9.45;;;5.25;;
22634;SDS011;11484;50.858;4.384;2022-09-13T14:22:25;7.60;;;4.55;;
22634;SDS011;11484;50.858;4.384;2022-09-13T14:25:12;6.40;;;4.38;;
22634;SDS011;11484;50.858;4.384;2022-09-13T14:27:40;11.13;;;4.80;;
22634;SDS011;11484;50.858;4.384;2022-09-13T14:30:17;7.63;;;4.60;;
22634;SDS011;11484;50.858;4.384;2022-09-13T14:32:58;10.43;;;4.97;;
22634;SDS011;11484;50.858;4.384;2022-09-13T14:35:35;7.40;;;4.18;;
22634;SDS011;11484;50.858;4.384;2022-09-13T14:38:19;10.88;;;4.75;;
22634;SDS011;11484;50.858;4.384;2022-09-13T14:40:46;9.05;;;4.40;;
22634;SDS011;11484;50.858;4.384;2022-09-13T14:43:14;8.27;;;4.43;;
22634;SDS011;11484;50.858;4.384;2022-09-13T14:45:44;5.95;;;4.05;;
22634;SDS011;11484;50.858;4.384;2022-09-13T14:48:15;8.15;;;4.30;;
22634;SDS011;11484;50.858;4.384;2022-09-13T14:50:49;6.80;;;4.07;;
22634;SDS011;11484;50.858;4.384;2022-09-13T14:53:26;6.80;;;4.07;;
22634;SDS011;11484;50.858;4.384;2022-09-13T14:56:02;8.63;;;4.75;;
22634;SDS011;11484;50.858;4.384;2022-09-13T14:58:42;6.60;;;4.40;;
22634;SDS011;11484;50.858;4.384;2022-09-13T15:01:13;8.73;;;5.70;;
22634;SDS011;11484;50.858;4.384;2022-09-13T15:03:42;9.17;;;5.57;;
22634;SDS011;11484;50.858;4.384;2022-09-13T15:06:18;8.82;;;4.90;;
22634;SDS011;11484;50.858;4.384;2022-09-13T15:08:52;9.38;;;5.07;;
22634;SDS011;11484;50.858;4.384;2022-09-13T15:11:37;8.43;;;5.20;;
22634;SDS011;11484;50.858;4.384;2022-09-13T15:14:22;7.65;;;4.80;;
22634;SDS011;11484;50.858;4.384;2022-09-13T15:19:43;7.63;;;5.05;;
22634;SDS011;11484;50.858;4.384;2022-09-13T15:22:18;8.73;;;4.75;;
22634;SDS011;11484;50.858;4.384;2022-09-13T15:24:49;7.45;;;5.15;;
22634;SDS011;11484;50.858;4.384;2022-09-13T15:27:27;8.45;;;4.60;;
22634;SDS011;11484;50.858;4.384;2022-09-13T15:30:45;9.38;;;5.20;;
22634;SDS011;11484;50.858;4.384;2022-09-13T15:33:26;7.32;;;4.78;;
22634;SDS011;11484;50.858;4.384;2022-09-13T15:41:57;8.68;;;5.22;;
22634;SDS011;11484;50.858;4.384;2022-09-13T15:44:27;11.48;;;5.75;;
22634;SDS011;11484;50.858;4.384;2022-09-13T15:47:00;9.02;;;6.18;;
22634;SDS011;11484;50.858;4.384;2022-09-13T15:49:29;8.63;;;6.20;;
22634;SDS011;11484;50.858;4.384;2022-09-13T15:52:00;9.18;;;6.65;;
22634;SDS011;11484;50.858;4.384;2022-09-13T15:54:30;11.68;;;8.15;;
22634;SDS011;11484;50.858;4.384;2022-09-13T15:56:58;10.82;;;8.25;;
22634;SDS011;11484;50.858;4.384;2022-09-13T15:59:24;17.00;;;7.60;;
22634;SDS011;11484;50.858;4.384;2022-09-13T16:01:50;8.90;;;6.75;;
22634;SDS011;11484;50.858;4.384;2022-09-13T16:04:17;10.45;;;6.97;;
22634;SDS011;11484;50.858;4.384;2022-09-13T16:06:43;8.07;;;5.90;;
22634;SDS011;11484;50.858;4.384;2022-09-13T16:09:10;11.70;;;6.10;;
22634;SDS011;11484;50.858;4.384;2022-09-13T16:11:47;11.25;;;6.68;;
22634;SDS011;11484;50.858;4.384;2022-09-13T16:14:16;10.80;;;6.75;;
22634;SDS011;11484;50.858;4.384;2022-09-13T16:16:43;10.48;;;7.55;;
22634;SDS011;11484;50.858;4.384;2022-09-13T16:19:17;11.13;;;7.70;;
22634;SDS011;11484;50.858;4.384;2022-09-13T16:21:44;9.88;;;7.22;;
22634;SDS011;11484;50.858;4.384;2022-09-13T16:24:10;12.07;;;8.13;;
22634;SDS011;11484;50.858;4.384;2022-09-13T16:26:36;12.40;;;7.43;;
22634;SDS011;11484;50.858;4.384;2022-09-13T16:29:03;12.98;;;8.45;;
22634;SDS011;11484;50.858;4.384;2022-09-13T16:31:29;10.55;;;7.65;;
22634;SDS011;11484;50.858;4.384;2022-09-13T16:33:55;9.50;;;7.50;;
22634;SDS011;11484;50.858;4.384;2022-09-13T16:36:21;10.13;;;7.10;;
22634;SDS011;11484;50.858;4.384;2022-09-13T16:38:47;9.88;;;7.55;;
22634;SDS011;11484;50.858;4.384;2022-09-13T16:41:14;11.48;;;7.95;;
22634;SDS011;11484;50.858;4.384;2022-09-13T16:43:40;10.80;;;8.13;;
22634;SDS011;11484;50.858;4.384;2022-09-13T16:46:06;13.48;;;8.63;;
22634;SDS011;11484;50.858;4.384;2022-09-13T16:48:33;14.15;;;8.85;;
22634;SDS011;11484;50.858;4.384;2022-09-13T16:51:09;13.13;;;8.63;;
22634;SDS011;11484;50.858;4.384;2022-09-13T16:53:38;16.00;;;10.68;;
22634;SDS011;11484;50.858;4.384;2022-09-13T16:56:10;14.68;;;10.57;;
22634;SDS011;11484;50.858;4.384;2022-09-13T16:58:38;14.60;;;10.40;;
22634;SDS011;11484;50.858;4.384;2022-09-13T17:01:05;15.38;;;11.05;;
22634;SDS011;11484;50.858;4.384;2022-09-13T17:03:32;17.80;;;11.15;;
22634;SDS011;11484;50.858;4.384;2022-09-13T17:06:00;14.50;;;10.90;;
22634;SDS011;11484;50.858;4.384;2022-09-13T17:08:27;14.15;;;10.88;;
22634;SDS011;11484;50.858;4.384;2022-09-13T17:10:54;15.40;;;11.15;;
22634;SDS011;11484;50.858;4.384;2022-09-13T17:13:20;15.30;;;11.50;;
22634;SDS011;11484;50.858;4.384;2022-09-13T17:15:46;14.52;;;10.70;;
22634;SDS011;11484;50.858;4.384;2022-09-13T17:18:12;18.67;;;12.13;;
22634;SDS011;11484;50.858;4.384;2022-09-13T17:20:42;16.88;;;12.30;;
22634;SDS011;11484;50.858;4.384;2022-09-13T17:23:09;16.33;;;11.02;;
22634;SDS011;11484;50.858;4.384;2022-09-13T17:25:35;18.48;;;11.90;;
22634;SDS011;11484;50.858;4.384;2022-09-13T17:28:01;17.45;;;12.63;;
22634;SDS011;11484;50.858;4.384;2022-09-13T17:30:27;17.02;;;12.60;;
22634;SDS011;11484;50.858;4.384;2022-09-13T17:32:52;17.48;;;12.73;;
22634;SDS011;11484;50.858;4.384;2022-09-13T17:35:18;14.43;;;9.95;;
22634;SDS011;11484;50.858;4.384;2022-09-13T17:37:46;14.48;;;10.38;;
22634;SDS011;11484;50.858;4.384;2022-09-13T17:40:12;10.77;;;8.70;;
22634;SDS011;11484;50.858;4.384;2022-09-13T17:42:38;9.77;;;7.93;;
22634;SDS011;11484;50.858;4.384;2022-09-13T17:45:04;13.32;;;9.27;;
22634;SDS011;11484;50.858;4.384;2022-09-13T17:47:30;11.63;;;8.68;;
22634;SDS011;11484;50.858;4.384;2022-09-13T17:49:55;15.25;;;9.00;;
22634;SDS011;11484;50.858;4.384;2022-09-13T17:52:21;11.18;;;8.40;;
22634;SDS011;11484;50.858;4.384;2022-09-13T17:54:46;10.13;;;8.05;;
22634;SDS011;11484;50.858;4.384;2022-09-13T17:57:14;10.60;;;8.25;;
22634;SDS011;11484;50.858;4.384;2022-09-13T17:59:39;10.00;;;8.40;;
22634;SDS011;11484;50.858;4.384;2022-09-13T18:02:05;14.13;;;9.10;;
22634;SDS011;11484;50.858;4.384;2022-09-13T18:04:33;10.48;;;8.52;;
22634;SDS011;11484;50.858;4.384;2022-09-13T18:06:59;11.35;;;9.05;;
22634;SDS011;11484;50.858;4.384;2022-09-13T18:09:24;11.02;;;8.50;;
22634;SDS011;11484;50.858;4.384;2022-09-13T18:11:50;11.23;;;9.35;;
22634;SDS011;11484;50.858;4.384;2022-09-13T18:14:18;12.82;;;9.30;;
22634;SDS011;11484;50.858;4.384;2022-09-13T18:16:44;11.43;;;8.55;;
22634;SDS011;11484;50.858;4.384;2022-09-13T18:19:10;14.05;;;9.52;;
22634;SDS011;11484;50.858;4.384;2022-09-13T18:21:37;13.15;;;9.30;;
22634;SDS011;11484;50.858;4.384;2022-09-13T18:24:03;13.52;;;9.55;;
22634;SDS011;11484;50.858;4.384;2022-09-13T18:26:30;10.48;;;8.63;;
22634;SDS011;11484;50.858;4.384;2022-09-13T18:28:57;15.20;;;10.32;;
22634;SDS011;11484;50.858;4.384;2022-09-13T18:31:25;10.88;;;8.73;;
22634;SDS011;11484;50.858;4.384;2022-09-13T18:33:53;11.80;;;9.38;;
22634;SDS011;11484;50.858;4.384;2022-09-13T18:36:21;13.27;;;8.90;;